Time;durP1;ratioP1;P1;durP2;ratioP2;P2;SDS_P1;SDS_P2;PMS_P1;PMS_P2;Temp;Humidity;BMP_temperature;BMP_pressure;BME280_temperature;BME280_humidity;BME280_pressure;Samples;Min_cycle;Max_cycle;Signal;HPM_P1;HPM_P2
2020/12/29 00:00:58;;;;;;;;;;;;;;;;;;;;;
2020/12/29 00:04:22;;;;;;;;;;;;;;;;;;;;;
2020/12/29 00:11:00;;;;;;;12.88;9.48;;;4.50;99.90;;;;;;4789159;29;20048;-93
2020/12/29 00:13:29;;;;;;;16.98;13.65;;;4.50;99.90;;;;;;4824205;29;20034;-93
2020/12/29 00:18:32;;;;;;;17.58;12.60;;;4.50;99.90;;;;;;4937778;28;20094;-91
2020/12/29 00:20:59;;;;;;;15.57;12.57;;;4.40;99.90;;;;;;4936657;29;20367;-93
2020/12/29 00:23:27;;;;;;;16.48;12.30;;;4.40;99.90;;;;;;4936793;29;20059;-93
2020/12/29 00:25:58;;;;;;;13.52;10.75;;;4.40;99.90;;;;;;4936791;29;20031;-93
2020/12/29 00:28:27;;;;;;;14.18;10.93;;;4.40;99.90;;;;;;4921268;29;20048;-93
2020/12/29 00:30:57;;;;;;;14.20;10.45;;;4.40;99.90;;;;;;4936533;29;20031;-92
2020/12/29 00:33:30;;;;;;;10.55;8.43;;;4.40;99.90;;;;;;4922133;29;20503;-93
2020/12/29 00:36:04;;;;;;;12.25;9.00;;;4.40;99.90;;;;;;4921924;29;20063;-92
2020/12/29 00:38:30;;;;;;;14.38;10.18;;;4.30;99.90;;;;;;4920484;29;20083;-92
2020/12/29 00:41:11;;;;;;;14.85;10.63;;;4.40;99.90;;;;;;4920355;29;20496;-93
2020/12/29 00:43:41;;;;;;;12.15;9.00;;;4.40;99.90;;;;;;4920135;29;20039;-93
2020/12/29 00:46:44;;;;;;;;;;;;;;;;;;;;;
2020/12/29 00:49:25;;;;;;;14.00;9.43;;;4.40;99.90;;;;;;4904000;29;20091;-92
2020/12/29 00:51:58;;;;;;;12.38;10.07;;;4.40;99.90;;;;;;4940659;29;20111;-92
2020/12/29 00:54:34;;;;;;;;;;;4.40;99.90;;;;;;4920295;29;20061;-92
2020/12/29 00:57:10;;;;;;;;;;;;;;;;;;;;;
2020/12/29 01:03:19;;;;;;;13.10;9.30;;;4.50;99.90;;;;;;4864548;29;20045;-93
2020/12/29 01:06:12;;;;;;;13.32;8.40;;;4.50;99.90;;;;;;4923846;29;20035;-92
2020/12/29 01:09:05;;;;;;;10.55;8.13;;;4.50;99.90;;;;;;4926659;29;20039;-93
2020/12/29 01:11:32;;;;;;;11.55;8.43;;;4.50;99.90;;;;;;4929964;29;20043;-92
2020/12/29 01:13:57;;;;;;;12.98;9.88;;;4.50;99.90;;;;;;4909418;29;20039;-91
2020/12/29 01:16:26;;;;;;;12.23;8.90;;;4.50;99.90;;;;;;4924415;29;20730;-92
2020/12/29 01:18:56;;;;;;;13.25;9.88;;;4.50;99.90;;;;;;4965268;28;20054;-94
2020/12/29 01:21:25;;;;;;;14.88;10.13;;;4.50;99.90;;;;;;4960982;28;20043;-93
2020/12/29 01:23:51;;;;;;;13.85;9.40;;;4.50;99.90;;;;;;4969689;28;20026;-95
2020/12/29 01:26:31;;;;;;;12.52;8.98;;;4.50;99.90;;;;;;4978885;28;20030;-93
2020/12/29 01:29:21;;;;;;;12.27;8.95;;;4.50;99.90;;;;;;4979463;28;20034;-92
2020/12/29 01:31:51;;;;;;;11.13;9.05;;;4.50;99.90;;;;;;4975978;28;20043;-91
2020/12/29 01:34:35;;;;;;;10.48;8.68;;;4.50;99.90;;;;;;4963497;28;20030;-94
2020/12/29 01:37:00;;;;;;;12.18;8.77;;;4.50;99.90;;;;;;4942106;29;20387;-94
2020/12/29 01:39:26;;;;;;;11.85;9.27;;;4.50;99.90;;;;;;4942961;29;20031;-91
2020/12/29 01:41:58;;;;;;;10.00;7.68;;;4.50;99.90;;;;;;4927257;29;20130;-92
2020/12/29 01:44:29;;;;;;;12.52;8.77;;;4.50;99.90;;;;;;4942061;29;20506;-91
2020/12/29 01:46:58;;;;;;;11.10;8.23;;;4.50;99.90;;;;;;4959277;29;20054;-91
2020/12/29 01:49:28;;;;;;;11.40;8.70;;;4.50;99.90;;;;;;4955493;28;20396;-91
2020/12/29 01:51:56;;;;;;;11.02;8.70;;;4.50;99.90;;;;;;4958939;28;20043;-95
2020/12/29 01:54:22;;;;;;;10.73;8.57;;;4.50;99.90;;;;;;4922065;28;20044;-94
2020/12/29 01:56:48;;;;;;;11.35;8.32;;;4.50;99.90;;;;;;4958830;28;20047;-92
2020/12/29 01:59:36;;;;;;;12.02;8.68;;;4.40;99.90;;;;;;4969837;28;20059;-92
2020/12/29 02:02:24;;;;;;;11.70;9.35;;;4.40;99.90;;;;;;4956414;28;20062;-91
2020/12/29 02:04:50;;;;;;;11.88;9.07;;;4.40;99.90;;;;;;4939081;29;20034;-94
2020/12/29 02:07:18;;;;;;;13.27;9.65;;;4.40;99.90;;;;;;4940277;29;20039;-92
2020/12/29 02:09:44;;;;;;;12.80;10.05;;;4.40;99.90;;;;;;4941806;29;20091;-93
2020/12/29 02:12:32;;;;;;;12.27;9.48;;;4.40;99.90;;;;;;4960383;28;20086;-93
2020/12/29 02:15:06;;;;;;;14.27;11.40;;;4.40;99.90;;;;;;4958052;28;20059;-94
2020/12/29 02:17:40;;;;;;;13.23;10.43;;;4.40;99.90;;;;;;4959134;28;20043;-93
2020/12/29 02:20:32;;;;;;;13.10;9.85;;;4.30;99.90;;;;;;4940089;29;20484;-92
2020/12/29 02:23:02;;;;;;;12.07;9.57;;;4.40;99.90;;;;;;4941901;29;20062;-91
2020/12/29 02:25:31;;;;;;;12.05;9.35;;;4.40;99.90;;;;;;4958014;28;20039;-91
2020/12/29 02:28:05;;;;;;;11.60;9.23;;;4.30;99.90;;;;;;4941536;29;20151;-92
2020/12/29 02:30:50;;;;;;;14.63;10.07;;;4.40;99.90;;;;;;4959064;29;20114;-93
2020/12/29 02:33:33;;;;;;;12.63;9.35;;;4.40;99.90;;;;;;4957241;29;20110;-91
2020/12/29 02:36:01;;;;;;;12.05;9.95;;;4.40;99.90;;;;;;4958162;28;20035;-92
2020/12/29 02:38:57;;;;;;;14.98;11.50;;;4.40;99.90;;;;;;4938430;29;20552;-92
2020/12/29 02:41:31;;;;;;;13.35;10.85;;;4.40;99.90;;;;;;4939196;29;20072;-91
2020/12/29 02:43:57;;;;;;;13.35;10.77;;;4.40;99.90;;;;;;4967667;28;20054;-91
2020/12/29 02:46:25;;;;;;;14.25;10.98;;;4.40;99.90;;;;;;4996402;28;20092;-91
2020/12/29 02:49:12;;;;;;;12.93;10.88;;;4.40;99.90;;;;;;4978855;28;20062;-92
2020/12/29 02:51:38;;;;;;;12.77;10.18;;;4.40;99.90;;;;;;4979681;28;20034;-93
2020/12/29 02:54:04;;;;;;;15.40;12.10;;;4.40;99.90;;;;;;4979828;28;20475;-92
2020/12/29 02:57:11;;;;;;;14.30;11.55;;;4.40;99.90;;;;;;4978839;28;20073;-91
2020/12/29 02:59:37;;;;;;;17.73;11.45;;;4.40;99.90;;;;;;4979578;28;20038;-93
2020/12/29 03:02:16;;;;;;;;;;;;;;;;;;;;;
2020/12/29 03:04:52;;;;;;;16.50;12.63;;;4.40;99.90;;;;;;4996463;28;20049;-92
2020/12/29 03:07:19;;;;;;;15.55;12.60;;;4.30;99.90;;;;;;4963812;28;20146;-92
2020/12/29 03:09:53;;;;;;;15.68;13.13;;;4.40;99.90;;;;;;4962265;28;20035;-92
2020/12/29 03:12:25;;;;;;;14.48;12.05;;;4.40;99.90;;;;;;4995900;28;20030;-93
2020/12/29 03:14:51;;;;;;;17.73;14.05;;;4.40;99.90;;;;;;4979202;28;20034;-94
2020/12/29 03:17:20;;;;;;;16.02;13.55;;;4.40;99.90;;;;;;4978797;28;20122;-92
2020/12/29 03:19:50;;;;;;;15.65;12.73;;;4.30;99.90;;;;;;4962835;28;20066;-93
2020/12/29 03:22:22;;;;;;;16.00;13.80;;;4.30;99.90;;;;;;4978552;28;20100;-91
2020/12/29 03:24:48;;;;;;;16.15;13.35;;;4.30;99.90;;;;;;4977979;28;20038;-92
2020/12/29 03:27:17;;;;;;;15.45;13.75;;;4.30;99.90;;;;;;4978531;28;20034;-92
2020/12/29 03:29:48;;;;;;;16.83;13.77;;;4.30;99.90;;;;;;4979025;28;20030;-91
2020/12/29 03:32:14;;;;;;;16.42;14.18;;;4.30;99.90;;;;;;4978547;28;20030;-93
2020/12/29 03:34:44;;;;;;;16.48;13.48;;;4.30;99.90;;;;;;4978967;28;20057;-91
2020/12/29 03:37:13;;;;;;;16.20;12.98;;;4.30;99.90;;;;;;4979307;28;20065;-93
2020/12/29 03:39:51;;;;;;;14.82;12.05;;;4.30;99.90;;;;;;4978833;28;20502;-92
2020/12/29 03:42:33;;;;;;;14.85;12.68;;;4.30;99.90;;;;;;4978782;28;20387;-92
2020/12/29 03:45:43;;;;;;;16.38;12.82;;;4.30;99.90;;;;;;4979266;28;20057;-92
2020/12/29 03:47:57;;;;;;;15.82;12.82;;;4.30;99.90;;;;;;4977544;28;20042;-93
2020/12/29 03:50:26;;;;;;;16.00;13.15;;;4.30;99.90;;;;;;4947379;28;20109;-93
2020/12/29 03:53:07;;;;;;;19.27;14.60;;;4.30;99.90;;;;;;4979396;28;20069;-92
2020/12/29 03:55:34;;;;;;;15.95;13.13;;;4.30;99.90;;;;;;4977789;28;20049;-92
2020/12/29 03:58:03;;;;;;;15.27;12.88;;;4.30;99.90;;;;;;4978873;28;20045;-92
2020/12/29 04:01:11;;;;;;;16.88;13.80;;;4.20;99.90;;;;;;4976753;28;20046;-92
2020/12/29 04:03:37;;;;;;;16.48;13.55;;;4.20;99.90;;;;;;4969565;28;20398;-92
2020/12/29 04:06:03;;;;;;;15.98;12.75;;;4.10;99.90;;;;;;4979148;28;20453;-92
2020/12/29 04:08:30;;;;;;;14.88;13.02;;;4.10;99.90;;;;;;4978616;28;20137;-93
2020/12/29 04:11:00;;;;;;;13.20;10.93;;;4.10;99.90;;;;;;4996054;28;20398;-92
2020/12/29 04:13:26;;;;;;;12.43;10.57;;;4.10;99.90;;;;;;4960081;28;20054;-91
2020/12/29 04:16:03;;;;;;;11.13;9.90;;;4.10;99.90;;;;;;4978165;28;20049;-93
2020/12/29 04:18:35;;;;;;;13.95;11.60;;;4.10;99.90;;;;;;4957287;28;20046;-93
2020/12/29 04:21:32;;;;;;;13.00;11.25;;;4.10;99.90;;;;;;4966320;28;20046;-92
2020/12/29 04:24:00;;;;;;;13.80;11.32;;;4.10;99.90;;;;;;5000708;28;20041;-92
2020/12/29 04:26:28;;;;;;;14.90;12.40;;;4.10;99.90;;;;;;4983718;28;20030;-92
2020/12/29 04:29:11;;;;;;;13.55;11.88;;;4.10;99.90;;;;;;4983650;28;20069;-93
2020/12/29 04:31:51;;;;;;;;;;;;;;;;;;;;;
2020/12/29 04:34:18;;;;;;;14.43;12.85;;;4.10;99.90;;;;;;4997863;28;20121;-92
2020/12/29 04:36:54;;;;;;;;;;;;;;;;;;;;;
2020/12/29 04:39:30;;;;;;;14.80;12.05;;;4.00;99.90;;;;;;5001649;28;20437;-92
2020/12/29 04:42:38;;;;;;;17.25;13.48;;;4.00;99.90;;;;;;5000664;28;20038;-92
2020/12/29 04:45:25;;;;;;;14.75;12.45;;;4.00;99.90;;;;;;4997225;28;20041;-93
2020/12/29 04:48:31;;;;;;;14.10;11.73;;;4.00;99.90;;;;;;4970164;28;20046;-94
2020/12/29 04:51:14;;;;;;;15.85;12.07;;;4.00;99.90;;;;;;5000126;28;20076;-91
2020/12/29 04:54:09;;;;;;;13.85;12.07;;;4.00;99.90;;;;;;4982321;28;20042;-94
2020/12/29 04:56:42;;;;;;;14.73;12.43;;;4.00;99.90;;;;;;4982303;28;20121;-92
2020/12/29 04:59:48;;;;;;;17.02;14.27;;;4.00;99.90;;;;;;4982341;28;20137;-93
2020/12/29 05:02:20;;;;;;;14.82;12.07;;;4.00;99.90;;;;;;4982353;28;20041;-93
2020/12/29 05:05:05;;;;;;;14.85;12.35;;;4.00;99.90;;;;;;4967054;28;20498;-92
2020/12/29 05:07:58;;;;;;;15.85;12.15;;;4.00;99.90;;;;;;5000881;28;20065;-93
2020/12/29 05:11:16;;;;;;;13.93;10.98;;;4.00;99.90;;;;;;5000067;28;20066;-93
2020/12/29 06:01:47;;;;;;;19.52;14.90;;;4.10;99.90;;;;;;4881678;29;20142;-92
2020/12/29 06:04:18;;;;;;;22.83;16.63;;;4.10;99.90;;;;;;4865113;29;20056;-91
2020/12/29 06:07:05;;;;;;;24.15;17.88;;;4.10;99.90;;;;;;4926548;29;20044;-91
2020/12/29 06:09:37;;;;;;;25.08;18.35;;;4.10;99.90;;;;;;4959061;29;20511;-93
2020/12/29 06:12:29;;;;;;;23.38;17.00;;;4.20;99.90;;;;;;4958886;29;20122;-92
2020/12/29 06:14:58;;;;;;;26.17;19.10;;;4.20;99.90;;;;;;4944658;29;20047;-91
2020/12/29 06:17:57;;;;;;;27.90;19.60;;;4.20;99.90;;;;;;4943047;29;20102;-91
2020/12/29 06:20:49;;;;;;;26.58;18.15;;;4.20;99.90;;;;;;4939708;29;20046;-91
2020/12/29 06:23:19;;;;;;;29.67;20.15;;;4.10;99.90;;;;;;4940609;29;20046;-91
2020/12/29 06:25:46;;;;;;;29.63;20.65;;;4.10;99.90;;;;;;4940680;29;20638;-91
2020/12/29 06:28:22;;;;;;;30.42;21.23;;;4.20;99.90;;;;;;4944573;29;20119;-91
2020/12/29 06:30:52;;;;;;;33.60;22.73;;;4.10;99.90;;;;;;4944655;29;20042;-91
2020/12/29 06:33:21;;;;;;;32.03;21.70;;;4.10;99.90;;;;;;4947310;29;20044;-90
2020/12/29 06:36:00;;;;;;;31.58;22.05;;;4.10;99.90;;;;;;4948036;29;20042;-93
2020/12/29 06:38:32;;;;;;;32.78;22.55;;;4.10;99.90;;;;;;4960342;29;20071;-91
2020/12/29 06:41:05;;;;;;;31.02;22.08;;;4.10;99.90;;;;;;4957363;29;20039;-91
2020/12/29 06:44:02;;;;;;;;;;;;;;;;;;;;;
2020/12/29 06:47:05;;;;;;;;;;;;;;;;;;;;;
2020/12/29 06:49:34;;;;;;;39.72;26.23;;;4.20;99.90;;;;;;4943261;29;20031;-91
2020/12/29 06:52:19;;;;;;;36.45;25.83;;;4.20;99.90;;;;;;4940907;29;20126;-91
2020/12/29 06:54:54;;;;;;;40.67;27.55;;;4.20;99.90;;;;;;4941069;29;20038;-91
2020/12/29 06:57:56;;;;;;;;;;;;;;;;;;;;;
2020/12/29 07:00:33;;;;;;;41.53;27.85;;;4.10;99.90;;;;;;4946248;28;20053;-92
2020/12/29 07:03:06;;;;;;;36.63;24.35;;;4.20;99.90;;;;;;4955150;28;20047;-90
2020/12/29 07:05:38;;;;;;;38.65;27.67;;;4.10;99.90;;;;;;4959984;28;20082;-92
2020/12/29 07:08:34;;;;;;;;;;;4.10;99.90;;;;;;4977333;28;20045;-92
2020/12/29 07:11:24;;;;;;;33.50;22.05;;;4.00;99.90;;;;;;4959896;28;19910;-90
2020/12/29 07:14:13;;;;;;;30.02;20.42;;;4.00;99.90;;;;;;4945151;28;20078;-91
2020/12/29 07:16:38;;;;;;;30.45;19.40;;;3.90;99.90;;;;;;4955672;28;20102;-91
2020/12/29 07:19:14;;;;;;;26.65;17.23;;;3.90;99.90;;;;;;4959513;28;20141;-92
2020/12/29 07:22:01;;;;;;;24.77;16.00;;;3.90;99.90;;;;;;4944229;28;20070;-91
2020/12/29 07:24:41;;;;;;;24.63;15.77;;;3.80;99.90;;;;;;4958763;28;20070;-91
2020/12/29 07:27:15;;;;;;;24.55;15.13;;;3.80;99.90;;;;;;4959627;28;20570;-92
2020/12/29 07:30:10;;;;;;;;;;;;;;;;;;;;;
2020/12/29 07:33:18;;;;;;;;;;;;;;;;;;;;;
2020/12/29 07:36:11;;;;;;;28.02;15.85;;;3.70;99.90;;;;;;4958973;28;20045;-93
2020/12/29 07:39:10;;;;;;;27.30;15.57;;;3.70;99.90;;;;;;4959457;28;20098;-91
2020/12/29 07:41:53;;;;;;;29.48;16.42;;;3.70;99.90;;;;;;4959379;28;20094;-93
2020/12/29 07:44:53;;;;;;;26.35;15.32;;;3.70;99.90;;;;;;4956274;29;20042;-93
2020/12/29 07:47:42;;;;;;;33.15;19.25;;;3.70;99.90;;;;;;4951315;28;20403;-92
2020/12/29 07:50:39;;;;;;;;;;;;;;;;;;;;;
2020/12/29 07:53:33;;;;;;;;;;;;;;;;;;;;;
2020/12/29 07:56:08;;;;;;;;;;;3.80;99.90;;;;;;4976876;28;20038;-93
2020/12/29 08:02:19;;;;;;;37.55;20.15;;;3.70;99.90;;;;;;4977911;28;20046;-91
2020/12/29 08:04:44;;;;;;;;;;;3.70;99.90;;;;;;4885671;28;20040;-92
2020/12/29 08:10:53;;;;;;;41.38;22.02;;;3.60;99.90;;;;;;4911885;28;20043;-92
2020/12/29 08:14:18;;;;;;;;;;;;;;;;;;;;;
2020/12/29 08:20:20;;;;;;;44.40;22.23;;;3.60;99.90;;;;;;4959609;28;20043;-90
2020/12/29 08:23:01;;;;;;;47.95;24.67;;;3.60;99.90;;;;;;4974253;28;20122;-91
2020/12/29 08:26:10;;;;;;;50.13;25.98;;;3.60;99.90;;;;;;4975255;28;20035;-92
2020/12/29 08:29:10;;;;;;;;;;;;;;;;;;;;;
2020/12/29 08:31:52;;;;;;;;;;;;;;;;;;;;;
2020/12/29 08:37:25;;;;;;;43.88;22.58;;;3.50;99.90;;;;;;4953483;28;20126;-91
2020/12/29 08:40:22;;;;;;;42.80;22.90;;;3.50;99.90;;;;;;4971488;28;20035;-92
2020/12/29 08:43:25;;;;;;;;;;;;;;;;;;;;;
2020/12/29 08:46:24;;;;;;;41.63;21.25;;;3.40;99.90;;;;;;4970508;28;20046;-92
2020/12/29 08:49:04;;;;;;;34.63;19.70;;;3.40;99.90;;;;;;4951517;28;20061;-92
2020/12/29 08:51:34;;;;;;;38.25;21.35;;;3.40;99.90;;;;;;4938089;28;20066;-92
2020/12/29 08:54:29;;;;;;;35.40;19.08;;;3.40;99.90;;;;;;4959521;28;20051;-92
2020/12/29 08:57:41;;;;;;;;;;;;;;;;;;;;;
2020/12/29 09:00:55;;;;;;;;;;;;;;;;;;;;;
2020/12/29 09:03:30;;;;;;;42.20;21.50;;;3.50;99.90;;;;;;4960353;28;20038;-93
2020/12/29 09:06:21;;;;;;;40.65;22.27;;;3.50;99.90;;;;;;4943835;28;20045;-92
2020/12/29 09:09:21;;;;;;;;;;;;;;;;;;;;;
2020/12/29 09:12:17;;;;;;;47.03;23.25;;;3.50;99.90;;;;;;4963692;28;20386;-92
2020/12/29 09:15:47;;;;;;;52.00;26.88;;;3.40;99.90;;;;;;4961963;28;20042;-91
2020/12/29 09:18:24;;;;;;;52.38;28.02;;;3.40;99.90;;;;;;4950012;28;20043;-93
2020/12/29 09:21:20;;;;;;;56.70;29.85;;;3.40;99.90;;;;;;4962537;28;20035;-93
2020/12/29 09:24:06;;;;;;;57.90;29.25;;;3.40;99.90;;;;;;4962996;28;20390;-91
2020/12/29 09:26:54;;;;;;;58.40;30.15;;;3.40;99.90;;;;;;4961277;28;20569;-92
2020/12/29 09:29:31;;;;;;;58.00;30.15;;;3.30;99.90;;;;;;4963823;28;20038;-93
2020/12/29 09:32:35;;;;;;;57.08;28.73;;;3.30;99.90;;;;;;4961845;28;20039;-92
2020/12/29 09:35:24;;;;;;;51.15;26.25;;;3.30;99.90;;;;;;4961611;28;20155;-91
2020/12/29 09:37:51;;;;;;;53.55;28.58;;;3.30;99.90;;;;;;4977853;28;20099;-92
2020/12/29 09:40:49;;;;;;;51.28;26.02;;;3.40;99.90;;;;;;4961650;28;20031;-92
2020/12/29 09:46:16;;;;;;;;;;;;;;;;;;;;;
2020/12/29 09:49:13;;;;;;;50.63;25.73;;;3.40;99.90;;;;;;4978888;28;20053;-92
2020/12/29 09:55:11;;;;;;;47.03;24.42;;;3.50;99.90;;;;;;4959805;28;20035;-91
2020/12/29 09:58:02;;;;;;;;;;;;;;;;;;;;;
2020/12/29 10:00:49;;;;;;;;;;;;;;;;;;;;;
2020/12/29 10:03:30;;;;;;;;;;;;;;;;;;;;;
2020/12/29 10:06:02;;;;;;;43.40;24.10;;;3.60;99.90;;;;;;4977852;28;20035;-91
2020/12/29 10:08:31;;;;;;;40.37;22.20;;;3.60;99.90;;;;;;4978176;28;20027;-91
2020/12/29 10:11:14;;;;;;;;;;;;;;;;;;;;;
2020/12/29 10:14:03;;;;;;;42.47;22.80;;;3.70;99.90;;;;;;4962743;28;20049;-92
2020/12/29 10:16:38;;;;;;;45.25;23.42;;;3.70;99.90;;;;;;4977350;28;20070;-91
2020/12/29 10:19:16;;;;;;;;;;;;;;;;;;;;;
2020/12/29 10:24:48;;;;;;;41.25;22.95;;;3.80;99.90;;;;;;4967274;28;20035;-90
2020/12/29 10:27:38;;;;;;;45.78;26.08;;;3.80;99.90;;;;;;4977864;28;20038;-92
2020/12/29 10:30:06;;;;;;;44.90;24.00;;;3.80;99.90;;;;;;4960762;28;20034;-92
2020/12/29 10:32:37;;;;;;;43.28;23.98;;;3.80;99.90;;;;;;4945634;28;20042;-91
2020/12/29 10:35:25;;;;;;;39.95;23.10;;;3.80;99.90;;;;;;4961786;28;20062;-91
2020/12/29 10:38:00;;;;;;;41.67;22.38;;;3.80;99.90;;;;;;4970238;28;20115;-91
2020/12/29 10:40:46;;;;;;;47.30;26.73;;;3.80;99.90;;;;;;4966093;28;20043;-93
2020/12/29 10:43:15;;;;;;;47.25;25.15;;;3.80;99.90;;;;;;4967843;28;20066;-92
2020/12/29 10:46:26;;;;;;;44.00;25.08;;;3.80;99.90;;;;;;4981843;28;20102;-92
2020/12/29 10:49:12;;;;;;;;;;;;;;;;;;;;;
2020/12/29 10:51:55;;;;;;;;;;;;;;;;;;;;;
2020/12/29 10:54:21;;;;;;;40.53;22.00;;;3.90;99.90;;;;;;4981859;28;20101;-92
2020/12/29 10:56:57;;;;;;;45.47;24.65;;;3.90;99.90;;;;;;4976892;28;20069;-93
2020/12/29 11:00:02;;;;;;;;;;;;;;;;;;;;;
2020/12/29 11:02:56;;;;;;;47.03;25.55;;;4.00;99.90;;;;;;4957947;28;20387;-91
2020/12/29 11:06:02;;;;;;;45.20;25.90;;;4.00;99.90;;;;;;4966351;28;20061;-92
2020/12/29 11:08:51;;;;;;;46.95;25.50;;;4.00;99.90;;;;;;4974677;28;20043;-91
2020/12/29 11:11:53;;;;;;;43.63;24.10;;;4.00;99.90;;;;;;4974356;28;20481;-92
2020/12/29 11:17:40;;;;;;;44.75;24.80;;;4.10;99.90;;;;;;4966546;28;20086;-91
2020/12/29 11:20:35;;;;;;;39.28;22.35;;;4.10;99.90;;;;;;4959462;28;20053;-90
2020/12/29 11:23:32;;;;;;;39.35;22.35;;;4.10;99.90;;;;;;4960127;28;20035;-91
2020/12/29 11:26:23;;;;;;;;;;;;;;;;;;;;;
2020/12/29 11:29:11;;;;;;;;;;;;;;;;;;;;;
2020/12/29 11:32:10;;;;;;;35.95;20.73;;;4.20;99.90;;;;;;4956790;28;20499;-91
2020/12/29 11:38:04;;;;;;;34.28;20.52;;;4.30;99.90;;;;;;4916665;29;20142;-90
2020/12/29 11:41:11;;;;;;;42.47;21.92;;;4.30;99.90;;;;;;4939233;29;20039;-91
2020/12/29 11:43:52;;;;;;;40.00;22.50;;;4.30;99.90;;;;;;4922537;29;20076;-92
2020/12/29 11:46:35;;;;;;;38.83;22.63;;;4.40;99.90;;;;;;4942413;29;20042;-89
2020/12/29 11:50:30;;;;;;;;;;;;;;;;;;;;;
2020/12/29 11:53:20;;;;;;;43.50;23.35;;;4.60;99.90;;;;;;4894267;29;20164;-90
2020/12/29 11:56:14;;;;;;;44.47;25.75;;;4.60;99.90;;;;;;4908393;29;20476;-91
2020/12/29 12:02:15;;;;;;;45.22;24.00;;;4.60;99.90;;;;;;4946254;29;20110;-90
2020/12/29 12:04:52;;;;;;;40.60;22.48;;;4.60;99.90;;;;;;4940037;29;20035;-89
2020/12/29 12:07:46;;;;;;;45.97;24.45;;;4.70;99.90;;;;;;4955967;29;20043;-90
2020/12/29 12:10:28;;;;;;;;;;;;;;;;;;;;;
2020/12/29 12:16:50;;;;;;;;;;;;;;;;;;;;;
2020/12/29 12:19:42;;;;;;;64.63;41.40;;;4.80;99.90;;;;;;4971139;28;20047;-92
2020/12/29 12:25:08;;;;;;;62.10;37.78;;;4.80;99.90;;;;;;4979511;28;20030;-92
2020/12/29 12:28:20;;;;;;;;;;;;;;;;;;;;;
2020/12/29 12:30:58;;;;;;;58.53;36.00;;;4.90;99.90;;;;;;4957575;28;20078;-92
2020/12/29 12:33:28;;;;;;;67.50;41.25;;;4.90;99.90;;;;;;4993552;28;20109;-92
2020/12/29 12:42:24;;;;;;;63.88;37.40;;;4.80;99.90;;;;;;4885924;29;20093;-91
2020/12/29 12:45:11;;;;;;;62.08;37.25;;;4.80;99.90;;;;;;4977517;28;20413;-92
2020/12/29 12:47:53;;;;;;;56.60;34.60;;;4.80;99.90;;;;;;4924005;29;20496;-92
2020/12/29 12:50:58;;;;;;;50.60;33.15;;;4.80;99.90;;;;;;4970512;28;20069;-92
2020/12/29 12:56:30;;;;;;;;;;;;;;;;;;;;;
2020/12/29 12:59:48;;;;;;;;;;;;;;;;;;;;;
2020/12/29 13:03:00;;;;;;;48.35;31.75;;;5.00;99.90;;;;;;4970303;28;20499;-92
2020/12/29 13:05:35;;;;;;;49.22;32.35;;;5.00;99.90;;;;;;4977709;28;20035;-91
2020/12/29 13:08:09;;;;;;;50.13;32.85;;;5.00;99.90;;;;;;4944860;29;20537;-92
2020/12/29 13:10:58;;;;;;;;;;;;;;;;;;;;;
2020/12/29 13:13:45;;;;;;;46.50;31.60;;;5.00;99.90;;;;;;4977682;28;20129;-93
2020/12/29 13:17:00;;;;;;;43.92;30.13;;;5.10;99.90;;;;;;4976445;28;20039;-92
2020/12/29 13:20:17;;;;;;;;;;;;;;;;;;;;;
2020/12/29 13:23:09;;;;;;;44.15;29.50;;;5.20;99.90;;;;;;4936930;29;20038;-93
2020/12/29 13:26:33;;;;;;;43.88;30.63;;;5.30;99.90;;;;;;4940284;29;20040;-91
2020/12/29 13:29:12;;;;;;;43.10;27.45;;;5.20;99.90;;;;;;4951807;28;20038;-92
2020/12/29 13:31:54;;;;;;;40.50;27.02;;;5.20;99.90;;;;;;4960381;28;20031;-91
2020/12/29 13:34:32;;;;;;;40.25;26.60;;;5.20;99.90;;;;;;4954250;28;20125;-92
2020/12/29 13:37:09;;;;;;;;;;;;;;;;;;;;;
2020/12/29 13:39:40;;;;;;;38.67;25.38;;;5.10;99.90;;;;;;4962730;28;20049;-93
2020/12/29 13:42:38;;;;;;;34.83;24.42;;;5.10;99.90;;;;;;4953595;29;20499;-93
2020/12/29 13:48:56;;;;;;;37.25;25.25;;;5.10;99.90;;;;;;4971630;28;20102;-92
2020/12/29 13:51:32;;;;;;;35.10;24.13;;;5.10;99.90;;;;;;4967338;28;20046;-93
2020/12/29 13:54:14;;;;;;;;;;;;;;;;;;;;;
2020/12/29 14:00:34;;;;;;;41.90;27.45;;;5.10;99.90;;;;;;4924360;28;20126;-92
2020/12/29 14:03:17;;;;;;;;;;;;;;;;;;;;;
2020/12/29 14:06:07;;;;;;;40.47;26.85;;;5.10;99.90;;;;;;4944676;28;20034;-91
2020/12/29 14:12:03;;;;;;;39.38;26.05;;;5.10;99.90;;;;;;4950534;28;20621;-93
2020/12/29 14:15:16;;;;;;;35.33;22.40;;;5.00;99.90;;;;;;4938361;29;20073;-92
2020/12/29 14:18:00;;;;;;;31.33;21.55;;;5.00;99.90;;;;;;4940507;28;20051;-91
2020/12/29 14:20:39;;;;;;;32.30;22.63;;;4.90;99.90;;;;;;4943023;29;20099;-91
2020/12/29 14:23:31;;;;;;;34.42;22.65;;;4.90;99.90;;;;;;4941210;28;20047;-90
2020/12/29 14:26:19;;;;;;;36.35;25.00;;;4.80;99.90;;;;;;4975319;28;20484;-91
2020/12/29 14:29:15;;;;;;;;;;;;;;;;;;;;;
2020/12/29 14:32:33;;;;;;;48.22;29.90;;;4.90;99.90;;;;;;4957682;28;20027;-91
2020/12/29 14:36:07;;;;;;;;;;;;;;;;;;;;;
2020/12/29 14:38:37;;;;;;;45.47;29.67;;;4.80;99.90;;;;;;4958291;28;20047;-92
2020/12/29 14:47:22;;;;;;;42.67;28.05;;;4.80;99.90;;;;;;4937536;28;20038;-90
2020/12/29 14:50:43;;;;;;;45.35;27.27;;;4.80;99.90;;;;;;4939736;29;20035;-91
2020/12/29 14:57:55;;;;;;;39.30;25.35;;;4.80;99.90;;;;;;4933333;29;20038;-92
2020/12/29 15:00:43;;;;;;;35.30;23.25;;;4.80;99.90;;;;;;4954820;28;20062;-94
2020/12/29 15:07:19;;;;;;;;;;;;;;;;;;;;;
2020/12/29 15:14:13;;;;;;;;;;;;;;;;;;;;;
2020/12/29 15:17:39;;;;;;;;;;;;;;;;;;;;;
2020/12/29 15:20:18;;;;;;;;;;;;;;;;;;;;;
2020/12/29 15:23:16;;;;;;;29.10;18.27;;;4.70;99.90;;;;;;4957480;29;20035;-92
2020/12/29 15:25:54;;;;;;;24.13;15.57;;;4.70;99.90;;;;;;4956794;29;20479;-92
2020/12/29 15:28:33;;;;;;;19.52;13.32;;;4.70;99.90;;;;;;4942843;28;20548;-92
2020/12/29 15:31:55;;;;;;;16.70;11.70;;;4.70;99.90;;;;;;4958270;28;20038;-92
2020/12/29 15:34:32;;;;;;;16.88;10.95;;;4.70;99.90;;;;;;4922276;28;20038;-93
2020/12/29 15:37:31;;;;;;;16.73;11.07;;;4.60;99.90;;;;;;4957673;28;20046;-91
2020/12/29 15:40:27;;;;;;;17.10;10.55;;;4.70;99.90;;;;;;4936039;28;20046;-91
2020/12/29 15:46:47;;;;;;;;;;;;;;;;;;;;;
2020/12/29 15:49:46;;;;;;;14.77;9.52;;;4.60;99.90;;;;;;4947293;28;20049;-91
2020/12/29 15:52:38;;;;;;;17.73;11.15;;;4.60;99.90;;;;;;4947157;28;20035;-92
2020/12/29 15:58:29;;;;;;;;;;;4.60;99.90;;;;;;4945876;29;20043;-93
2020/12/29 16:00:57;;;;;;;19.88;13.10;;;4.50;99.90;;;;;;4965440;28;19922;-92
2020/12/29 16:06:25;;;;;;;19.52;13.10;;;4.60;99.90;;;;;;4979406;28;20046;-92
2020/12/29 16:09:49;;;;;;;22.85;12.98;;;4.60;99.90;;;;;;4994422;28;20045;-94
2020/12/29 16:12:28;;;;;;;25.63;14.30;;;4.50;99.90;;;;;;4973917;28;20039;-92
2020/12/29 16:17:57;;;;;;;22.88;14.88;;;4.50;99.90;;;;;;4984234;28;20054;-92
2020/12/29 16:20:24;;;;;;;26.67;16.23;;;4.50;99.90;;;;;;4981236;28;20470;-91
2020/12/29 16:22:50;;;;;;;25.38;15.15;;;4.50;99.90;;;;;;4997746;28;20434;-91
2020/12/29 16:25:20;;;;;;;21.92;15.68;;;4.50;99.90;;;;;;4980831;28;20030;-90
2020/12/29 16:27:48;;;;;;;28.02;17.52;;;4.50;99.90;;;;;;4995968;28;20077;-89
2020/12/29 16:30:14;;;;;;;26.02;17.58;;;4.50;99.90;;;;;;4969185;28;20069;-91
2020/12/29 16:32:42;;;;;;;32.75;20.85;;;4.50;99.90;;;;;;4979520;28;20041;-90
2020/12/29 16:35:11;;;;;;;32.15;19.80;;;4.50;99.90;;;;;;4981174;28;20034;-90
2020/12/29 16:37:42;;;;;;;33.40;22.33;;;4.50;99.90;;;;;;4965497;28;20038;-90
2020/12/29 16:40:16;;;;;;;37.03;23.75;;;4.50;99.90;;;;;;4981218;28;20504;-88
2020/12/29 16:42:46;;;;;;;36.25;23.38;;;4.50;99.90;;;;;;4998317;28;20054;-91
2020/12/29 16:45:28;;;;;;;36.97;24.05;;;4.50;99.90;;;;;;4980396;28;20038;-91
2020/12/29 16:48:04;;;;;;;43.10;27.63;;;4.50;99.90;;;;;;4980370;28;20034;-90
2020/12/29 16:50:30;;;;;;;41.03;26.17;;;4.50;99.90;;;;;;4974720;28;20057;-90
2020/12/29 16:53:27;;;;;;;43.45;26.42;;;4.50;99.90;;;;;;4981527;28;20402;-90
2020/12/29 16:56:17;;;;;;;40.20;25.10;;;4.50;99.90;;;;;;4979182;28;20038;-93
2020/12/29 16:58:58;;;;;;;43.38;26.92;;;4.50;99.90;;;;;;4987347;28;20038;-92
2020/12/29 17:01:57;;;;;;;44.95;29.70;;;4.50;99.90;;;;;;4996384;28;20046;-91
2020/12/29 17:04:55;;;;;;;;;;;;;;;;;;;;;
2020/12/29 17:07:45;;;;;;;;;;;;;;;;;;;;;
2020/12/29 17:10:19;;;;;;;43.90;28.70;;;4.40;99.90;;;;;;4981024;28;20042;-93
2020/12/29 17:12:56;;;;;;;;;;;;;;;;;;;;;
2020/12/29 17:15:35;;;;;;;;;;;;;;;;;;;;;
2020/12/29 17:18:17;;;;;;;53.53;32.33;;;4.30;99.90;;;;;;4993213;28;20049;-92
2020/12/29 17:20:50;;;;;;;55.55;33.80;;;4.30;99.90;;;;;;4976782;28;20065;-92
2020/12/29 17:23:23;;;;;;;52.80;33.63;;;4.30;99.90;;;;;;4986507;28;20046;-91
2020/12/29 17:26:02;;;;;;;56.78;35.22;;;4.30;99.90;;;;;;4981583;28;20059;-90
2020/12/29 17:28:31;;;;;;;64.63;36.80;;;4.30;99.90;;;;;;4976190;28;20035;-90
2020/12/29 17:31:30;;;;;;;59.38;35.47;;;4.30;99.90;;;;;;4977769;28;20835;-91
2020/12/29 17:36:46;;;;;;;61.28;35.53;;;4.30;99.90;;;;;;4979085;28;20049;-91
2020/12/29 17:39:22;;;;;;;63.72;36.28;;;4.30;99.90;;;;;;4976854;28;20134;-91